sensor_id;sensor_type;location;lat;lon;timestamp;temperature;humidity
22623;DHT22;11478;51.094;7.030;2023-05-07T00:00:09;13.10;99.90
22623;DHT22;11478;51.094;7.030;2023-05-07T00:02:37;13.10;99.90
22623;DHT22;11478;51.094;7.030;2023-05-07T00:05:03;13.10;99.90
22623;DHT22;11478;51.094;7.030;2023-05-07T00:07:31;13.10;99.90
22623;DHT22;11478;51.094;7.030;2023-05-07T00:09:57;13.10;99.90
22623;DHT22;11478;51.094;7.030;2023-05-07T00:12:25;13.10;99.90
22623;DHT22;11478;51.094;7.030;2023-05-07T00:14:51;13.10;99.90
22623;DHT22;11478;51.094;7.030;2023-05-07T00:17:22;13.10;99.90
22623;DHT22;11478;51.094;7.030;2023-05-07T00:19:48;13.10;99.90
22623;DHT22;11478;51.094;7.030;2023-05-07T00:22:16;13.00;99.90
22623;DHT22;11478;51.094;7.030;2023-05-07T00:24:42;13.10;99.90
22623;DHT22;11478;51.094;7.030;2023-05-07T00:27:12;13.10;99.90
22623;DHT22;11478;51.094;7.030;2023-05-07T00:29:39;13.10;99.90
22623;DHT22;11478;51.094;7.030;2023-05-07T00:32:08;13.10;99.90
22623;DHT22;11478;51.094;7.030;2023-05-07T00:34:34;13.10;99.90
22623;DHT22;11478;51.094;7.030;2023-05-07T00:37:01;13.00;99.90
22623;DHT22;11478;51.094;7.030;2023-05-07T00:39:31;13.00;99.90
22623;DHT22;11478;51.094;7.030;2023-05-07T00:41:57;13.00;99.90
22623;DHT22;11478;51.094;7.030;2023-05-07T00:44:23;13.00;99.90
22623;DHT22;11478;51.094;7.030;2023-05-07T00:46:49;13.00;99.90
22623;DHT22;11478;51.094;7.030;2023-05-07T00:49:19;13.00;99.90
22623;DHT22;11478;51.094;7.030;2023-05-07T00:51:46;13.00;99.90
22623;DHT22;11478;51.094;7.030;2023-05-07T00:54:13;13.00;99.90
22623;DHT22;11478;51.094;7.030;2023-05-07T00:56:39;13.00;99.90
22623;DHT22;11478;51.094;7.030;2023-05-07T00:59:20;13.00;99.90
22623;DHT22;11478;51.094;7.030;2023-05-07T01:01:46;13.00;99.90
22623;DHT22;11478;51.094;7.030;2023-05-07T01:04:19;13.00;99.90
22623;DHT22;11478;51.094;7.030;2023-05-07T01:06:45;12.90;99.90
22623;DHT22;11478;51.094;7.030;2023-05-07T01:09:24;13.00;99.90
22623;DHT22;11478;51.094;7.030;2023-05-07T01:11:50;13.00;99.90
22623;DHT22;11478;51.094;7.030;2023-05-07T01:14:19;12.90;99.90
22623;DHT22;11478;51.094;7.030;2023-05-07T01:16:47;12.90;99.90
22623;DHT22;11478;51.094;7.030;2023-05-07T01:19:22;12.90;99.90
22623;DHT22;11478;51.094;7.030;2023-05-07T01:21:49;12.90;99.90
22623;DHT22;11478;51.094;7.030;2023-05-07T01:24:22;12.90;99.90
22623;DHT22;11478;51.094;7.030;2023-05-07T01:26:48;12.90;99.90
22623;DHT22;11478;51.094;7.030;2023-05-07T01:29:13;12.90;99.90
22623;DHT22;11478;51.094;7.030;2023-05-07T01:31:42;12.90;99.90
22623;DHT22;11478;51.094;7.030;2023-05-07T01:34:09;12.90;99.90
22623;DHT22;11478;51.094;7.030;2023-05-07T01:36:38;12.90;99.90
22623;DHT22;11478;51.094;7.030;2023-05-07T01:39:05;12.90;99.90
22623;DHT22;11478;51.094;7.030;2023-05-07T01:41:31;12.80;99.90
22623;DHT22;11478;51.094;7.030;2023-05-07T01:44:01;12.80;99.90
22623;DHT22;11478;51.094;7.030;2023-05-07T01:46:29;12.80;99.90
22623;DHT22;11478;51.094;7.030;2023-05-07T01:48:55;12.80;99.90
22623;DHT22;11478;51.094;7.030;2023-05-07T01:51:21;12.80;99.90
22623;DHT22;11478;51.094;7.030;2023-05-07T01:53:54;12.80;99.90
22623;DHT22;11478;51.094;7.030;2023-05-07T01:56:20;12.80;99.90
22623;DHT22;11478;51.094;7.030;2023-05-07T01:58:48;12.70;99.90
22623;DHT22;11478;51.094;7.030;2023-05-07T02:01:15;12.70;99.90
22623;DHT22;11478;51.094;7.030;2023-05-07T02:03:45;12.70;99.90
22623;DHT22;11478;51.094;7.030;2023-05-07T02:06:11;12.70;99.90
22623;DHT22;11478;51.094;7.030;2023-05-07T02:08:46;12.70;99.90
22623;DHT22;11478;51.094;7.030;2023-05-07T02:11:12;12.70;99.90
22623;DHT22;11478;51.094;7.030;2023-05-07T02:13:41;12.70;99.90
22623;DHT22;11478;51.094;7.030;2023-05-07T02:16:07;12.70;99.90
22623;DHT22;11478;51.094;7.030;2023-05-07T02:18:34;12.70;99.90
22623;DHT22;11478;51.094;7.030;2023-05-07T02:21:01;12.60;99.90
22623;DHT22;11478;51.094;7.030;2023-05-07T02:23:28;12.60;99.90
22623;DHT22;11478;51.094;7.030;2023-05-07T02:25:54;12.60;99.90
22623;DHT22;11478;51.094;7.030;2023-05-07T02:28:24;12.50;99.90
22623;DHT22;11478;51.094;7.030;2023-05-07T02:30:50;12.50;99.90
22623;DHT22;11478;51.094;7.030;2023-05-07T02:33:16;12.50;99.90
22623;DHT22;11478;51.094;7.030;2023-05-07T02:35:44;12.50;99.90
22623;DHT22;11478;51.094;7.030;2023-05-07T02:38:10;12.50;99.90
22623;DHT22;11478;51.094;7.030;2023-05-07T02:40:38;12.50;99.90
22623;DHT22;11478;51.094;7.030;2023-05-07T02:43:05;12.40;99.90
22623;DHT22;11478;51.094;7.030;2023-05-07T02:45:33;12.40;99.90
22623;DHT22;11478;51.094;7.030;2023-05-07T02:47:59;12.40;99.90
22623;DHT22;11478;51.094;7.030;2023-05-07T02:50:25;12.30;99.90
22623;DHT22;11478;51.094;7.030;2023-05-07T02:52:52;12.30;99.90
22623;DHT22;11478;51.094;7.030;2023-05-07T02:55:19;12.30;99.90
22623;DHT22;11478;51.094;7.030;2023-05-07T02:57:45;12.30;99.90
22623;DHT22;11478;51.094;7.030;2023-05-07T03:02:38;12.20;99.90
22623;DHT22;11478;51.094;7.030;2023-05-07T03:05:10;12.20;99.90
22623;DHT22;11478;51.094;7.030;2023-05-07T03:07:37;12.10;99.90
22623;DHT22;11478;51.094;7.030;2023-05-07T03:10:04;12.00;99.90
22623;DHT22;11478;51.094;7.030;2023-05-07T03:12:30;12.00;99.90
22623;DHT22;11478;51.094;7.030;2023-05-07T03:14:59;11.90;99.90
22623;DHT22;11478;51.094;7.030;2023-05-07T03:17:24;11.90;99.90
22623;DHT22;11478;51.094;7.030;2023-05-07T03:19:53;11.80;99.90
22623;DHT22;11478;51.094;7.030;2023-05-07T03:22:19;11.80;99.90
22623;DHT22;11478;51.094;7.030;2023-05-07T03:24:47;11.70;99.90
22623;DHT22;11478;51.094;7.030;2023-05-07T03:27:13;11.70;99.90
22623;DHT22;11478;51.094;7.030;2023-05-07T03:29:40;11.60;99.90
22623;DHT22;11478;51.094;7.030;2023-05-07T03:32:05;11.50;99.90
22623;DHT22;11478;51.094;7.030;2023-05-07T03:34:33;11.50;99.90
22623;DHT22;11478;51.094;7.030;2023-05-07T03:36:59;11.40;99.90
22623;DHT22;11478;51.094;7.030;2023-05-07T03:39:31;11.40;99.90
22623;DHT22;11478;51.094;7.030;2023-05-07T03:41:58;11.30;99.90
22623;DHT22;11478;51.094;7.030;2023-05-07T03:44:26;11.30;99.90
22623;DHT22;11478;51.094;7.030;2023-05-07T03:46:51;11.20;99.90
22623;DHT22;11478;51.094;7.030;2023-05-07T03:49:18;11.20;99.90
22623;DHT22;11478;51.094;7.030;2023-05-07T03:51:44;11.20;99.90
22623;DHT22;11478;51.094;7.030;2023-05-07T03:54:12;11.20;99.90
22623;DHT22;11478;51.094;7.030;2023-05-07T03:56:38;11.20;99.90
22623;DHT22;11478;51.094;7.030;2023-05-07T03:59:04;11.20;99.90
22623;DHT22;11478;51.094;7.030;2023-05-07T04:01:30;11.10;99.90
22623;DHT22;11478;51.094;7.030;2023-05-07T04:03:56;11.10;99.90
22623;DHT22;11478;51.094;7.030;2023-05-07T04:06:22;11.10;99.90
22623;DHT22;11478;51.094;7.030;2023-05-07T04:08:49;11.10;99.90
22623;DHT22;11478;51.094;7.030;2023-05-07T04:11:15;11.10;99.90
22623;DHT22;11478;51.094;7.030;2023-05-07T04:13:47;11.20;99.90
22623;DHT22;11478;51.094;7.030;2023-05-07T04:16:13;11.20;99.90
22623;DHT22;11478;51.094;7.030;2023-05-07T04:18:46;11.10;99.90
22623;DHT22;11478;51.094;7.030;2023-05-07T04:21:19;11.20;99.90
22623;DHT22;11478;51.094;7.030;2023-05-07T04:23:48;11.20;99.90
22623;DHT22;11478;51.094;7.030;2023-05-07T04:26:14;11.20;99.90
22623;DHT22;11478;51.094;7.030;2023-05-07T04:28:42;11.10;99.90
22623;DHT22;11478;51.094;7.030;2023-05-07T04:31:08;11.10;99.90
22623;DHT22;11478;51.094;7.030;2023-05-07T04:33:35;11.20;99.90
22623;DHT22;11478;51.094;7.030;2023-05-07T04:36:04;11.20;99.90
22623;DHT22;11478;51.094;7.030;2023-05-07T04:38:31;11.20;99.90
22623;DHT22;11478;51.094;7.030;2023-05-07T04:41:04;11.20;99.90
22623;DHT22;11478;51.094;7.030;2023-05-07T04:43:30;11.30;99.90
22623;DHT22;11478;51.094;7.030;2023-05-07T04:45:56;11.30;99.90
22623;DHT22;11478;51.094;7.030;2023-05-07T04:48:22;11.40;99.90
22623;DHT22;11478;51.094;7.030;2023-05-07T04:50:51;11.40;99.90
22623;DHT22;11478;51.094;7.030;2023-05-07T04:53:17;11.50;99.90
22623;DHT22;11478;51.094;7.030;2023-05-07T04:55:44;11.50;99.90
22623;DHT22;11478;51.094;7.030;2023-05-07T04:58:11;11.60;99.90
22623;DHT22;11478;51.094;7.030;2023-05-07T05:00:38;11.60;99.90
22623;DHT22;11478;51.094;7.030;2023-05-07T05:03:07;11.70;99.90
22623;DHT22;11478;51.094;7.030;2023-05-07T05:05:35;11.70;99.90
22623;DHT22;11478;51.094;7.030;2023-05-07T05:08:00;11.80;99.90
22623;DHT22;11478;51.094;7.030;2023-05-07T05:10:29;11.80;99.90
22623;DHT22;11478;51.094;7.030;2023-05-07T05:12:54;11.90;99.90
22623;DHT22;11478;51.094;7.030;2023-05-07T05:15:21;12.00;99.90
22623;DHT22;11478;51.094;7.030;2023-05-07T05:17:47;12.00;99.90
22623;DHT22;11478;51.094;7.030;2023-05-07T05:20:20;12.10;99.90
22623;DHT22;11478;51.094;7.030;2023-05-07T05:22:46;12.20;99.90
22623;DHT22;11478;51.094;7.030;2023-05-07T05:25:13;12.20;99.90
22623;DHT22;11478;51.094;7.030;2023-05-07T05:27:39;12.30;99.90
22623;DHT22;11478;51.094;7.030;2023-05-07T05:30:19;12.30;99.90
22623;DHT22;11478;51.094;7.030;2023-05-07T05:32:45;12.40;99.90
22623;DHT22;11478;51.094;7.030;2023-05-07T05:35:16;12.40;99.90
22623;DHT22;11478;51.094;7.030;2023-05-07T05:37:46;12.40;99.90
22623;DHT22;11478;51.094;7.030;2023-05-07T05:40:12;12.50;99.90
22623;DHT22;11478;51.094;7.030;2023-05-07T05:42:38;12.50;99.90
22623;DHT22;11478;51.094;7.030;2023-05-07T05:45:04;12.60;99.90
22623;DHT22;11478;51.094;7.030;2023-05-07T05:47:32;12.60;99.90
22623;DHT22;11478;51.094;7.030;2023-05-07T05:49:58;12.70;99.90
22623;DHT22;11478;51.094;7.030;2023-05-07T05:52:26;12.80;99.90
22623;DHT22;11478;51.094;7.030;2023-05-07T05:54:53;12.80;99.90
22623;DHT22;11478;51.094;7.030;2023-05-07T05:57:19;12.80;99.90
22623;DHT22;11478;51.094;7.030;2023-05-07T05:59:52;12.80;99.90
22623;DHT22;11478;51.094;7.030;2023-05-07T06:02:17;12.90;99.90
22623;DHT22;11478;51.094;7.030;2023-05-07T06:04:43;12.90;99.90
22623;DHT22;11478;51.094;7.030;2023-05-07T06:07:09;12.90;99.90
22623;DHT22;11478;51.094;7.030;2023-05-07T06:09:52;12.90;99.90
22623;DHT22;11478;51.094;7.030;2023-05-07T06:12:17;13.00;99.90
22623;DHT22;11478;51.094;7.030;2023-05-07T06:14:43;13.00;99.90
22623;DHT22;11478;51.094;7.030;2023-05-07T06:17:09;13.10;99.90
22623;DHT22;11478;51.094;7.030;2023-05-07T06:19:36;13.10;99.90
22623;DHT22;11478;51.094;7.030;2023-05-07T06:22:02;13.20;99.90
22623;DHT22;11478;51.094;7.030;2023-05-07T06:24:49;13.20;99.90
22623;DHT22;11478;51.094;7.030;2023-05-07T06:27:15;13.30;99.90
22623;DHT22;11478;51.094;7.030;2023-05-07T06:29:44;13.30;99.90
22623;DHT22;11478;51.094;7.030;2023-05-07T06:32:13;13.40;99.90
22623;DHT22;11478;51.094;7.030;2023-05-07T06:34:57;13.50;99.90
22623;DHT22;11478;51.094;7.030;2023-05-07T06:37:35;13.50;99.90
22623;DHT22;11478;51.094;7.030;2023-05-07T06:40:04;13.60;99.90
22623;DHT22;11478;51.094;7.030;2023-05-07T06:42:38;13.70;99.90
22623;DHT22;11478;51.094;7.030;2023-05-07T06:45:04;13.80;99.90
22623;DHT22;11478;51.094;7.030;2023-05-07T06:47:30;13.90;99.90
22623;DHT22;11478;51.094;7.030;2023-05-07T06:49:56;14.00;99.90
22623;DHT22;11478;51.094;7.030;2023-05-07T06:52:26;14.10;99.90
22623;DHT22;11478;51.094;7.030;2023-05-07T06:54:51;14.20;99.90
22623;DHT22;11478;51.094;7.030;2023-05-07T06:57:17;14.30;99.90
22623;DHT22;11478;51.094;7.030;2023-05-07T06:59:43;14.40;99.90
22623;DHT22;11478;51.094;7.030;2023-05-07T07:02:11;14.40;99.90
22623;DHT22;11478;51.094;7.030;2023-05-07T07:04:37;14.60;99.90
22623;DHT22;11478;51.094;7.030;2023-05-07T07:07:05;14.70;99.90
22623;DHT22;11478;51.094;7.030;2023-05-07T07:09:31;14.80;99.90
22623;DHT22;11478;51.094;7.030;2023-05-07T07:12:03;14.80;99.90
22623;DHT22;11478;51.094;7.030;2023-05-07T07:14:29;14.90;99.90
22623;DHT22;11478;51.094;7.030;2023-05-07T07:16:54;15.00;99.90
22623;DHT22;11478;51.094;7.030;2023-05-07T07:19:20;15.10;99.90
22623;DHT22;11478;51.094;7.030;2023-05-07T07:22:03;15.10;99.90
22623;DHT22;11478;51.094;7.030;2023-05-07T07:24:29;15.30;99.90
22623;DHT22;11478;51.094;7.030;2023-05-07T07:27:07;15.40;99.90
22623;DHT22;11478;51.094;7.030;2023-05-07T07:29:33;15.50;99.90
22623;DHT22;11478;51.094;7.030;2023-05-07T07:32:03;15.70;99.90
22623;DHT22;11478;51.094;7.030;2023-05-07T07:34:29;15.90;99.90
22623;DHT22;11478;51.094;7.030;2023-05-07T07:40:04;16.20;99.90
22623;DHT22;11478;51.094;7.030;2023-05-07T07:42:30;16.40;99.90
22623;DHT22;11478;51.094;7.030;2023-05-07T07:44:57;16.50;99.90
22623;DHT22;11478;51.094;7.030;2023-05-07T07:47:23;16.60;99.90
22623;DHT22;11478;51.094;7.030;2023-05-07T07:49:51;16.70;99.90
22623;DHT22;11478;51.094;7.030;2023-05-07T07:52:17;16.90;99.90
22623;DHT22;11478;51.094;7.030;2023-05-07T07:54:44;17.10;99.90
22623;DHT22;11478;51.094;7.030;2023-05-07T07:57:10;17.50;99.90
22623;DHT22;11478;51.094;7.030;2023-05-07T07:59:36;17.70;99.90
22623;DHT22;11478;51.094;7.030;2023-05-07T08:02:02;17.90;99.90
22623;DHT22;11478;51.094;7.030;2023-05-07T08:04:28;18.00;99.90
22623;DHT22;11478;51.094;7.030;2023-05-07T08:06:54;18.10;99.90
22623;DHT22;11478;51.094;7.030;2023-05-07T08:09:23;18.20;99.90
22623;DHT22;11478;51.094;7.030;2023-05-07T08:11:49;18.20;99.90
22623;DHT22;11478;51.094;7.030;2023-05-07T08:14:20;18.20;99.90
22623;DHT22;11478;51.094;7.030;2023-05-07T08:16:46;18.10;99.90
22623;DHT22;11478;51.094;7.030;2023-05-07T08:19:16;18.00;99.90
22623;DHT22;11478;51.094;7.030;2023-05-07T08:21:42;17.80;99.90
22623;DHT22;11478;51.094;7.030;2023-05-07T08:24:10;17.70;99.90
22623;DHT22;11478;51.094;7.030;2023-05-07T08:26:38;17.60;99.90
22623;DHT22;11478;51.094;7.030;2023-05-07T08:29:06;17.60;99.90
22623;DHT22;11478;51.094;7.030;2023-05-07T08:31:32;17.50;99.90
22623;DHT22;11478;51.094;7.030;2023-05-07T08:33:58;17.50;99.90
22623;DHT22;11478;51.094;7.030;2023-05-07T08:36:25;17.50;99.90
22623;DHT22;11478;51.094;7.030;2023-05-07T08:38:53;17.50;99.90
22623;DHT22;11478;51.094;7.030;2023-05-07T08:41:20;17.50;99.90
22623;DHT22;11478;51.094;7.030;2023-05-07T08:43:51;17.50;99.90
22623;DHT22;11478;51.094;7.030;2023-05-07T08:46:22;17.50;99.90
22623;DHT22;11478;51.094;7.030;2023-05-07T08:48:51;17.50;99.90
22623;DHT22;11478;51.094;7.030;2023-05-07T08:51:19;17.50;99.90
22623;DHT22;11478;51.094;7.030;2023-05-07T08:53:55;17.60;99.90
22623;DHT22;11478;51.094;7.030;2023-05-07T08:56:21;17.60;99.90
22623;DHT22;11478;51.094;7.030;2023-05-07T08:58:47;17.70;99.90
22623;DHT22;11478;51.094;7.030;2023-05-07T09:01:15;17.80;99.90
22623;DHT22;11478;51.094;7.030;2023-05-07T09:03:46;18.00;99.90
22623;DHT22;11478;51.094;7.030;2023-05-07T09:06:12;18.10;99.90
22623;DHT22;11478;51.094;7.030;2023-05-07T09:08:39;18.20;99.90
22623;DHT22;11478;51.094;7.030;2023-05-07T09:11:05;18.40;99.90
22623;DHT22;11478;51.094;7.030;2023-05-07T09:13:36;18.70;99.90
22623;DHT22;11478;51.094;7.030;2023-05-07T09:16:12;18.90;99.90
22623;DHT22;11478;51.094;7.030;2023-05-07T09:18:42;19.00;99.90
22623;DHT22;11478;51.094;7.030;2023-05-07T09:21:15;19.10;99.90
22623;DHT22;11478;51.094;7.030;2023-05-07T09:23:41;19.10;99.90
22623;DHT22;11478;51.094;7.030;2023-05-07T09:26:07;19.10;99.90
22623;DHT22;11478;51.094;7.030;2023-05-07T09:28:42;19.10;99.90
22623;DHT22;11478;51.094;7.030;2023-05-07T09:31:08;19.10;99.90
22623;DHT22;11478;51.094;7.030;2023-05-07T09:33:35;19.00;99.90
22623;DHT22;11478;51.094;7.030;2023-05-07T09:36:05;19.00;99.90
22623;DHT22;11478;51.094;7.030;2023-05-07T09:38:35;19.10;99.90
22623;DHT22;11478;51.094;7.030;2023-05-07T09:41:20;19.10;99.90
22623;DHT22;11478;51.094;7.030;2023-05-07T09:43:46;19.00;99.90
22623;DHT22;11478;51.094;7.030;2023-05-07T09:46:25;19.00;99.90
22623;DHT22;11478;51.094;7.030;2023-05-07T09:48:55;19.00;99.90
22623;DHT22;11478;51.094;7.030;2023-05-07T09:51:41;19.00;99.90
22623;DHT22;11478;51.094;7.030;2023-05-07T09:54:09;19.10;99.90
22623;DHT22;11478;51.094;7.030;2023-05-07T09:56:48;19.20;99.90
22623;DHT22;11478;51.094;7.030;2023-05-07T09:59:16;19.30;99.90
22623;DHT22;11478;51.094;7.030;2023-05-07T10:01:43;19.40;99.90
22623;DHT22;11478;51.094;7.030;2023-05-07T10:04:10;19.50;99.90
22623;DHT22;11478;51.094;7.030;2023-05-07T10:06:37;19.70;99.90
22623;DHT22;11478;51.094;7.030;2023-05-07T10:09:04;19.80;99.90
22623;DHT22;11478;51.094;7.030;2023-05-07T10:11:37;19.90;99.90
22623;DHT22;11478;51.094;7.030;2023-05-07T10:14:04;19.90;99.90
22623;DHT22;11478;51.094;7.030;2023-05-07T10:16:37;20.10;99.90
22623;DHT22;11478;51.094;7.030;2023-05-07T10:19:09;20.50;99.90
22623;DHT22;11478;51.094;7.030;2023-05-07T10:21:51;21.00;99.90
22623;DHT22;11478;51.094;7.030;2023-05-07T10:24:20;21.60;99.90
22623;DHT22;11478;51.094;7.030;2023-05-07T10:26:49;22.00;99.90
22623;DHT22;11478;51.094;7.030;2023-05-07T10:32:30;21.90;99.90
22623;DHT22;11478;51.094;7.030;2023-05-07T10:35:02;21.70;99.90
22623;DHT22;11478;51.094;7.030;2023-05-07T10:37:54;21.50;99.90
22623;DHT22;11478;51.094;7.030;2023-05-07T10:40:21;21.30;99.90
22623;DHT22;11478;51.094;7.030;2023-05-07T10:42:54;21.20;99.90
22623;DHT22;11478;51.094;7.030;2023-05-07T10:45:23;21.30;99.90
22623;DHT22;11478;51.094;7.030;2023-05-07T10:50:39;21.80;99.90
22623;DHT22;11478;51.094;7.030;2023-05-07T10:56:35;22.50;99.90
22623;DHT22;11478;51.094;7.030;2023-05-07T11:04:23;22.70;99.90
22623;DHT22;11478;51.094;7.030;2023-05-07T11:09:55;22.40;99.90
22623;DHT22;11478;51.094;7.030;2023-05-07T11:15:08;22.20;99.90
22623;DHT22;11478;51.094;7.030;2023-05-07T11:17:57;22.00;99.90
22623;DHT22;11478;51.094;7.030;2023-05-07T11:20:56;22.10;99.90
22623;DHT22;11478;51.094;7.030;2023-05-07T11:26:04;21.90;99.90
22623;DHT22;11478;51.094;7.030;2023-05-07T11:28:32;21.90;99.90
22623;DHT22;11478;51.094;7.030;2023-05-07T11:31:04;21.90;99.90
22623;DHT22;11478;51.094;7.030;2023-05-07T11:33:31;21.90;99.90
22623;DHT22;11478;51.094;7.030;2023-05-07T11:35:57;21.90;99.90
22623;DHT22;11478;51.094;7.030;2023-05-07T11:38:24;21.90;99.90
22623;DHT22;11478;51.094;7.030;2023-05-07T11:40:51;21.80;99.90
22623;DHT22;11478;51.094;7.030;2023-05-07T11:43:17;21.80;99.90
22623;DHT22;11478;51.094;7.030;2023-05-07T11:45:44;21.80;99.90
22623;DHT22;11478;51.094;7.030;2023-05-07T11:48:14;21.90;99.90
22623;DHT22;11478;51.094;7.030;2023-05-07T11:50:59;22.00;99.90
22623;DHT22;11478;51.094;7.030;2023-05-07T11:53:26;22.20;99.90
22623;DHT22;11478;51.094;7.030;2023-05-07T11:55:55;22.40;99.90
22623;DHT22;11478;51.094;7.030;2023-05-07T11:58:24;22.60;99.90
22623;DHT22;11478;51.094;7.030;2023-05-07T12:00:52;22.80;99.90
22623;DHT22;11478;51.094;7.030;2023-05-07T12:03:19;23.00;99.90
22623;DHT22;11478;51.094;7.030;2023-05-07T12:05:45;23.10;99.90
22623;DHT22;11478;51.094;7.030;2023-05-07T12:08:24;23.20;99.90
22623;DHT22;11478;51.094;7.030;2023-05-07T12:10:50;23.20;99.90
22623;DHT22;11478;51.094;7.030;2023-05-07T12:13:23;23.20;99.90
22623;DHT22;11478;51.094;7.030;2023-05-07T12:15:52;23.10;99.90
22623;DHT22;11478;51.094;7.030;2023-05-07T12:18:20;23.10;99.90
22623;DHT22;11478;51.094;7.030;2023-05-07T12:20:46;23.00;99.90
22623;DHT22;11478;51.094;7.030;2023-05-07T12:23:13;22.90;99.90
22623;DHT22;11478;51.094;7.030;2023-05-07T12:25:41;22.80;99.90
22623;DHT22;11478;51.094;7.030;2023-05-07T12:28:17;22.70;99.90
22623;DHT22;11478;51.094;7.030;2023-05-07T12:30:44;22.70;99.90
22623;DHT22;11478;51.094;7.030;2023-05-07T12:33:10;22.60;99.90
22623;DHT22;11478;51.094;7.030;2023-05-07T12:35:39;22.50;99.90
22623;DHT22;11478;51.094;7.030;2023-05-07T12:38:13;22.50;99.90
22623;DHT22;11478;51.094;7.030;2023-05-07T12:40:47;22.40;99.90
22623;DHT22;11478;51.094;7.030;2023-05-07T12:43:29;22.40;99.90
22623;DHT22;11478;51.094;7.030;2023-05-07T12:45:58;22.30;99.90
22623;DHT22;11478;51.094;7.030;2023-05-07T12:48:25;22.30;99.90
22623;DHT22;11478;51.094;7.030;2023-05-07T12:50:58;22.20;99.90
22623;DHT22;11478;51.094;7.030;2023-05-07T12:53:26;22.10;99.90
22623;DHT22;11478;51.094;7.030;2023-05-07T12:55:59;22.10;99.90
22623;DHT22;11478;51.094;7.030;2023-05-07T12:58:32;22.00;99.90
22623;DHT22;11478;51.094;7.030;2023-05-07T13:01:05;21.90;99.90
22623;DHT22;11478;51.094;7.030;2023-05-07T13:03:34;21.80;99.90
22623;DHT22;11478;51.094;7.030;2023-05-07T13:06:03;21.70;99.90
22623;DHT22;11478;51.094;7.030;2023-05-07T13:08:31;21.60;99.90
22623;DHT22;11478;51.094;7.030;2023-05-07T13:10:59;21.50;99.90
22623;DHT22;11478;51.094;7.030;2023-05-07T13:13:26;21.30;99.90
22623;DHT22;11478;51.094;7.030;2023-05-07T13:15:52;21.20;99.90
22623;DHT22;11478;51.094;7.030;2023-05-07T13:18:19;21.20;99.90
22623;DHT22;11478;51.094;7.030;2023-05-07T13:20:44;21.20;99.90
22623;DHT22;11478;51.094;7.030;2023-05-07T13:23:14;21.20;99.90
22623;DHT22;11478;51.094;7.030;2023-05-07T13:25:40;21.20;99.90
22623;DHT22;11478;51.094;7.030;2023-05-07T13:28:08;21.10;99.90
22623;DHT22;11478;51.094;7.030;2023-05-07T13:30:34;21.10;99.90
22623;DHT22;11478;51.094;7.030;2023-05-07T13:33:00;21.10;99.90
22623;DHT22;11478;51.094;7.030;2023-05-07T13:35:26;21.00;99.90
22623;DHT22;11478;51.094;7.030;2023-05-07T13:37:52;21.00;99.90
22623;DHT22;11478;51.094;7.030;2023-05-07T13:40:22;20.90;99.90
22623;DHT22;11478;51.094;7.030;2023-05-07T13:42:49;20.80;99.90
22623;DHT22;11478;51.094;7.030;2023-05-07T13:45:16;20.70;99.90
22623;DHT22;11478;51.094;7.030;2023-05-07T13:47:43;20.70;99.90
22623;DHT22;11478;51.094;7.030;2023-05-07T13:50:10;20.60;99.90
22623;DHT22;11478;51.094;7.030;2023-05-07T13:52:44;20.50;99.90
22623;DHT22;11478;51.094;7.030;2023-05-07T13:55:21;20.50;99.90
22623;DHT22;11478;51.094;7.030;2023-05-07T13:57:55;20.40;99.90
22623;DHT22;11478;51.094;7.030;2023-05-07T14:00:23;20.40;99.90
22623;DHT22;11478;51.094;7.030;2023-05-07T14:02:59;20.40;99.90
22623;DHT22;11478;51.094;7.030;2023-05-07T14:05:25;20.40;99.90
22623;DHT22;11478;51.094;7.030;2023-05-07T14:07:58;20.40;99.90
22623;DHT22;11478;51.094;7.030;2023-05-07T14:10:26;20.40;99.90
22623;DHT22;11478;51.094;7.030;2023-05-07T14:12:53;20.40;99.90
22623;DHT22;11478;51.094;7.030;2023-05-07T14:15:20;20.40;99.90
22623;DHT22;11478;51.094;7.030;2023-05-07T14:17:47;20.40;99.90
22623;DHT22;11478;51.094;7.030;2023-05-07T14:20:13;20.40;99.90
22623;DHT22;11478;51.094;7.030;2023-05-07T14:22:41;20.30;99.90
22623;DHT22;11478;51.094;7.030;2023-05-07T14:25:09;20.20;99.90
22623;DHT22;11478;51.094;7.030;2023-05-07T14:27:35;20.10;99.90
22623;DHT22;11478;51.094;7.030;2023-05-07T14:30:01;20.00;99.90
22623;DHT22;11478;51.094;7.030;2023-05-07T14:32:31;19.90;99.90
22623;DHT22;11478;51.094;7.030;2023-05-07T14:34:58;19.80;99.90
22623;DHT22;11478;51.094;7.030;2023-05-07T14:37:25;19.70;99.90
22623;DHT22;11478;51.094;7.030;2023-05-07T14:39:51;19.60;99.90
22623;DHT22;11478;51.094;7.030;2023-05-07T14:42:18;19.60;99.90
22623;DHT22;11478;51.094;7.030;2023-05-07T14:44:55;19.50;99.90
22623;DHT22;11478;51.094;7.030;2023-05-07T14:47:21;19.40;99.90
22623;DHT22;11478;51.094;7.030;2023-05-07T14:49:54;19.30;99.90
22623;DHT22;11478;51.094;7.030;2023-05-07T14:52:20;19.10;99.90
22623;DHT22;11478;51.094;7.030;2023-05-07T14:54:49;19.00;99.90
22623;DHT22;11478;51.094;7.030;2023-05-07T14:57:20;18.90;99.90
22623;DHT22;11478;51.094;7.030;2023-05-07T14:59:46;18.80;99.90
22623;DHT22;11478;51.094;7.030;2023-05-07T15:02:12;18.70;99.90
22623;DHT22;11478;51.094;7.030;2023-05-07T15:04:42;18.70;99.90
22623;DHT22;11478;51.094;7.030;2023-05-07T15:07:12;18.70;99.90
22623;DHT22;11478;51.094;7.030;2023-05-07T15:09:49;18.70;99.90
22623;DHT22;11478;51.094;7.030;2023-05-07T15:12:16;18.60;99.90
22623;DHT22;11478;51.094;7.030;2023-05-07T15:14:45;18.60;99.90
22623;DHT22;11478;51.094;7.030;2023-05-07T15:17:11;18.50;99.90
22623;DHT22;11478;51.094;7.030;2023-05-07T15:19:38;18.50;99.90
22623;DHT22;11478;51.094;7.030;2023-05-07T15:22:04;18.40;99.90
22623;DHT22;11478;51.094;7.030;2023-05-07T15:24:35;18.40;99.90
22623;DHT22;11478;51.094;7.030;2023-05-07T15:27:00;18.30;99.90
22623;DHT22;11478;51.094;7.030;2023-05-07T15:29:28;18.20;99.90
22623;DHT22;11478;51.094;7.030;2023-05-07T15:31:54;18.10;99.90
22623;DHT22;11478;51.094;7.030;2023-05-07T15:34:21;18.10;99.90
22623;DHT22;11478;51.094;7.030;2023-05-07T15:36:47;18.10;99.90
22623;DHT22;11478;51.094;7.030;2023-05-07T15:39:19;18.00;99.90
22623;DHT22;11478;51.094;7.030;2023-05-07T15:41:45;18.00;99.90
22623;DHT22;11478;51.094;7.030;2023-05-07T15:44:13;18.00;99.90
22623;DHT22;11478;51.094;7.030;2023-05-07T15:46:39;18.00;99.90
22623;DHT22;11478;51.094;7.030;2023-05-07T15:52:11;18.00;99.90
22623;DHT22;11478;51.094;7.030;2023-05-07T15:55:14;18.10;99.90
22623;DHT22;11478;51.094;7.030;2023-05-07T15:57:40;18.10;99.90
22623;DHT22;11478;51.094;7.030;2023-05-07T16:00:06;18.20;99.90
22623;DHT22;11478;51.094;7.030;2023-05-07T16:02:34;18.20;99.90
22623;DHT22;11478;51.094;7.030;2023-05-07T16:05:04;18.30;99.90
22623;DHT22;11478;51.094;7.030;2023-05-07T16:07:30;18.30;99.90
22623;DHT22;11478;51.094;7.030;2023-05-07T16:09:56;18.40;99.90